• Join FlightAware (Why Join?)
  • Login
  • US Flag 
02:06PM EDT


 

Airport Tracker/Info


-or-


 

Live Flight TrackerFlight Track Log ✈ SWA378 ✈ 29-Apr-2013 ✈ KLAX - KATL

Flight Track Log - Related Links

Times and Time Zones

All times are in EDT time to prevent confusion due to time zone crossing. See the SWA378 flight status page for this flight to view local times or setup timezone preferences in your user account.

Time Position Orientation Groundspeed Altitude Reporting Facility
EDT Latitude Longitude Course Direction KTS MPH feet Rate Location/Type
01:23PM 33.8906 -118.5289 212° Southwest 254 292 4,100  Level Los Angeles Center
01:24PM 33.8156 -118.5228 176° South 266 306 6,800 2,580 Climbing Los Angeles Center
01:25PM 33.7389 -118.5233 180° South 279 321 9,500 2,520 Climbing Los Angeles Center
01:26PM 33.6817 -118.4653 140° Southeast 303 349 12,100 2,340 Climbing Los Angeles Center
01:27PM 33.6546 -118.3925 121° Southeast  Level FlightAware Approximate
01:27PM 33.6450 -118.3411 110° East 345 397 14,400  Level Los Angeles Center
01:28PM 33.6439 -118.2250 91° East 359 413 17,000 2,400 Climbing Los Angeles Center
01:29PM 33.6442 -118.1033 90° East 369 425 19,400 1,980 Climbing Los Angeles Center
01:30PM 33.6442 -117.9761 90° East 379 436 21,100 1,740 Climbing Los Angeles Center
01:31PM 33.6431 -117.8089 90° East 412 474 23,000 1,500 Climbing Los Angeles Center
01:32PM 33.6425 -117.6675 90° East 422 486 24,200 1,500 Climbing Los Angeles Center
01:33PM 33.6419 -117.5244 90° East 428 493 26,100 1,680 Climbing Los Angeles Center
01:34PM 33.6417 -117.3786 90° East 437 503 27,800 1,440 Climbing Los Angeles Center
01:35PM 33.6400 -117.2300 91° East 447 514 29,200 1,620 Climbing Los Angeles Center
01:36PM 33.6378 -117.0472 91° East 458 527 31,200 1,740 Climbing Los Angeles Center
01:37PM 33.6369 -116.8978 90° East 454 522 32,800 1,440 Climbing Los Angeles Center
01:39PM 33.6361 -116.7433 90° East 449 517 34,200 1,260 Climbing Los Angeles Center
01:40PM 33.6347 -116.5925 91° East 452 520 35,500 1,200 Climbing Los Angeles Center
01:41PM 33.6317 -116.4456 91° East 442 509 36,700 720 Climbing Los Angeles Center
01:42PM 33.6425 -116.2997 85° East 437 503 37,000 120 Climbing Los Angeles Center
01:43PM 33.6675 -116.1542 78° East 444 511 37,000  Level Los Angeles Center
01:44PM 33.6906 -116.0114 79° East 438 504 37,000  Level Los Angeles Center
01:45PM 33.7197 -115.8414 78° East 430 495 37,000  Level Los Angeles Center
01:46PM 33.7433 -115.6978 79° East 436 502 37,000  Level Los Angeles Center
01:47PM 33.7667 -115.5567 79° East 433 498 37,000  Level Los Angeles Center
01:48PM 33.7906 -115.4131 79° East 437 503 37,000  Level Los Angeles Center
01:49PM 33.8128 -115.2697 79° East 435 501 37,000  Level Los Angeles Center
01:50PM 33.8369 -115.1247 79° East 442 509 37,000  Level Los Angeles Center
01:51PM 33.8636 -114.9533 79° East 435 501 37,000  Level Los Angeles Center
01:52PM 33.8917 -114.8111 77° East 437 503 37,000  Level Los Angeles Center
01:53PM 33.9106 -114.6639 81° East 442 509 37,000  Level Los Angeles Center
01:54PM 33.9342 -114.5208 79° East 439 505 37,000  Level Los Angeles Center
01:55PM 33.9567 -114.3778 79° East 437 503 37,000  Level Los Angeles Center
01:55PM 33.9656 -114.3219 79° East 440 506 37,000  Level Albuquerque Center
01:56PM 33.9914 -114.1542 79° East 439 505 37,000  Level Albuquerque Center
01:58PM 34.0122 -114.0106 80° East 438 504 37,000  Level Albuquerque Center
01:59PM 34.0350 -113.8658 79° East 439 505 37,000  Level Albuquerque Center
02:00PM 34.0564 -113.7208 80° East 440 506 37,000  Level Albuquerque Center
02:01PM 34.0775 -113.5750 80° East 441 507 37,000  Level Albuquerque Center
02:02PM 34.0981 -113.4286 80° East 443 510 37,000  Level Albuquerque Center
02:03PM 34.1253 -113.2517 79° East 446 513 37,000  Level Albuquerque Center
02:04PM 34.1450 -113.1044 81° East 446 513 37,000  Level Albuquerque Center
02:05PM 34.1658 -112.9575 80° East 446 513 37,000  Level Albuquerque Center
02:06PM 34.1869 -112.8108 80° East 444 511 37,000  Level Albuquerque Center
02:07PM 34.2075 -112.6631 80° East 445 512 37,000  Level Albuquerque Center
02:08PM 34.2289 -112.5167 80° East 444 511 37,000  Level Albuquerque Center
02:09PM 34.2536 -112.3406 80° East 442 509 37,000  Level Albuquerque Center
02:10PM 34.2733 -112.1953 81° East 439 505 37,000  Level Albuquerque Center
02:11PM 34.2928 -112.0467 81° East 443 510 37,000  Level Albuquerque Center
02:12PM 34.3128 -111.8972 81° East 445 512 37,000  Level Albuquerque Center
02:13PM 34.3333 -111.7472 81° East 447 514 37,000  Level Albuquerque Center
02:14PM 34.3531 -111.5961 81° East 450 518 37,000  Level Albuquerque Center
02:15PM 34.3719 -111.4461 81° East 450 518 37,000  Level Albuquerque Center
02:16PM 34.3908 -111.2972 81° East 448 516 37,000  Level Albuquerque Center
02:17PM 34.4108 -111.1481 81° East 449 517 37,000  Level Albuquerque Center
02:18PM 34.4339 -110.9678 81° East 450 518 37,000  Level Albuquerque Center
02:19PM 34.4517 -110.8206 82° East 447 514 37,000  Level Albuquerque Center
02:20PM 34.4714 -110.6731 81° East 445 512 37,000  Level Albuquerque Center
02:21PM 34.4897 -110.5253 81° East 445 512 37,000  Level Albuquerque Center
02:22PM 34.5075 -110.3656 82° East 446 513 37,000  Level Albuquerque Center
02:23PM 34.5278 -110.1997 82° East 446 513 37,000  Level Albuquerque Center
02:24PM 34.5439 -110.0558 82° East 448 516 37,000  Level Albuquerque Center
02:25PM 34.5614 -109.9144 81° East 446 513 37,000  Level Albuquerque Center
02:26PM 34.5803 -109.7489 82° East 446 513 37,000  Level Albuquerque Center
02:27PM 34.5972 -109.6047 82° East 448 516 37,000  Level Albuquerque Center
02:28PM 34.6156 -109.4364 82° East 451 519 37,000  Level Albuquerque Center
02:30PM 34.6319 -109.2919 82° East 452 520 37,000  Level Albuquerque Center
02:31PM 34.6511 -109.1239 82° East 452 520 37,000  Level Albuquerque Center
02:32PM 34.6658 -108.9792 83° East 452 520 37,000  Level Albuquerque Center
02:33PM 34.6858 -108.8111 82° East 452 520 37,000  Level Albuquerque Center
02:34PM 34.7008 -108.6658 83° East 453 521 37,000  Level Albuquerque Center
02:35PM 34.7181 -108.4967 83° East 453 521 37,000  Level Albuquerque Center
02:36PM 34.7325 -108.3539 83° East 454 522 37,000  Level Albuquerque Center
02:37PM 34.7492 -108.2033 82° East 452 520 37,000  Level Albuquerque Center
02:38PM 34.7644 -108.0525 83° East 451 519 37,000  Level Albuquerque Center
02:39PM 34.7792 -107.9006 83° East 452 520 37,000  Level Albuquerque Center
02:40PM 34.7944 -107.7492 83° East 451 519 37,000  Level Albuquerque Center
02:41PM 34.8111 -107.5675 84° East 452 520 37,000  Level Albuquerque Center
02:42PM 34.8258 -107.4147 83° East 455 524 37,000  Level Albuquerque Center
02:43PM 34.8406 -107.2622 83° East 456 525 37,000  Level Albuquerque Center
02:44PM 34.8583 -107.0897 83° East 461 531 37,000  Level Albuquerque Center
02:45PM 34.8708 -106.9439 84° East 455 524 37,000  Level Albuquerque Center
02:46PM 34.8831 -106.7753 85° East 446 513 37,000  Level Albuquerque Center
02:47PM 34.8975 -106.6283 83° East 451 519 37,000  Level Albuquerque Center
02:48PM 34.9108 -106.4719 84° East 468 539 37,000  Level Albuquerque Center
02:49PM 34.9236 -106.3178 84° East 462 532 37,000  Level Albuquerque Center
02:50PM 34.9361 -106.1639 84° East 460 529 37,000  Level Albuquerque Center
02:51PM 34.9517 -105.9789 84° East 459 528 37,000  Level Albuquerque Center
02:52PM 34.9642 -105.8267 84° East 459 528 37,000  Level Albuquerque Center
02:53PM 34.9781 -105.6714 84° East 457 526 37,000  Level Albuquerque Center
02:54PM 34.9894 -105.5150 85° East 459 528 37,000  Level Albuquerque Center
02:55PM 35.0011 -105.3608 85° East 456 525 37,000  Level Albuquerque Center
02:56PM 35.0144 -105.2050 84° East 458 527 37,000  Level Albuquerque Center
02:57PM 35.0289 -105.0247 84° East 455 524 37,000  Level Albuquerque Center
02:58PM 35.0397 -104.8694 85° East 457 526 37,000  Level Albuquerque Center
02:59PM 35.0511 -104.7144 85° East 456 525 37,000  Level Albuquerque Center
03:00PM 35.0622 -104.5611 85° East 453 521 37,000  Level Albuquerque Center
03:01PM 35.0758 -104.3875 84° East 459 528 37,000  Level Albuquerque Center
03:03PM 35.0881 -104.2325 84° East 460 529 37,000  Level Albuquerque Center
03:04PM 35.0969 -104.0753 86° East 464 534 37,000  Level Albuquerque Center
03:05PM 35.1078 -103.9136 85° East 464 534 37,000  Level Albuquerque Center
03:06PM 35.1178 -103.7558 86° East 465 535 37,000  Level Albuquerque Center
03:07PM 35.1286 -103.6000 85° East 461 531 37,000  Level Albuquerque Center
03:08PM 35.1378 -103.4417 86° East 463 533 37,000  Level Albuquerque Center
03:09PM 35.1472 -103.2853 86° East 461 531 37,000  Level Albuquerque Center
03:10PM 35.1539 -103.1039 87° East 457 526 37,000  Level Albuquerque Center
03:11PM 35.1603 -102.9486 87° East 455 524 37,000  Level Albuquerque Center
03:12PM 35.1661 -102.8017 87° East 456 525 37,000  Level Albuquerque Center
03:13PM 35.1722 -102.6475 87° East 455 524 37,000  Level Albuquerque Center
03:14PM 35.1786 -102.4928 87° East 457 526 37,000  Level Albuquerque Center
03:15PM 35.1844 -102.3081 88° East 455 524 37,000  Level Albuquerque Center
03:16PM 35.1903 -102.1550 87° East 453 521 37,000  Level Albuquerque Center
03:17PM 35.1956 -102.0011 88° East 454 522 37,000  Level Albuquerque Center
03:18PM 35.2031 -101.8331 87° East 454 522 37,000  Level Albuquerque Center
03:19PM 35.2075 -101.6769 88° East 455 524 37,000  Level Albuquerque Center
03:20PM 35.2131 -101.5247 87° East 456 525 37,000  Level Albuquerque Center
03:21PM 35.2178 -101.3697 88° East 457 526 37,000  Level Albuquerque Center
03:22PM 35.2222 -101.2122 88° East 457 526 37,000  Level Albuquerque Center
03:23PM 35.2264 -101.0586 88° East 455 524 37,000  Level Albuquerque Center
03:24PM 35.2314 -100.9044 88° East 455 524 37,000  Level Albuquerque Center
03:25PM 35.2361 -100.7194 88° East 455 524 37,000  Level Albuquerque Center
03:26PM 35.2381 -100.5656 89° East 454 522 37,000  Level Albuquerque Center
03:27PM 35.2417 -100.4100 88° East 456 525 37,000  Level Albuquerque Center
03:28PM 35.2431 -100.2556 89° East 456 525 37,000  Level Albuquerque Center
03:29PM 35.2464 -100.1014 88° East 456 525 37,000  Level Albuquerque Center
03:30PM 35.2497 -99.9494 88° East 453 521 37,000  Level Albuquerque Center
03:31PM 35.2525 -99.7956 89° East 452 520 37,000 420 Level Albuquerque Center
03:32PM 35.2556 -99.6144 89° East 449 517 37,900 840 Climbing Albuquerque Center
03:33PM 35.2586 -99.4625 89° East 448 516 38,800 660 Climbing Albuquerque Center
03:34PM 35.2575 -99.3686 91° East 443 510 39,000 120 Climbing Fort Worth Center
03:35PM 35.2597 -99.2186 89° East 443 510 39,000  Level Fort Worth Center
03:36PM 35.2617 -99.0636 89° East 443 510 39,000  Level Fort Worth Center
03:37PM 35.2636 -98.9111 89° East 443 510 39,000  Level Fort Worth Center
03:38PM 35.2633 -98.7536 90° East 443 510 39,000  Level Fort Worth Center
03:39PM 35.2669 -98.6036 88° East 443 510 39,000  Level Fort Worth Center
03:40PM 35.2661 -98.4739 90° East 434 499 39,000  Level Fort Worth Center
03:41PM 35.2675 -98.3189 89° East 429 494 39,000  Level Fort Worth Center
03:42PM 35.2664 -98.1686 90° East 435 501 39,000  Level Fort Worth Center
03:43PM 35.2672 -98.0161 90° East 440 506 39,000  Level Fort Worth Center
03:44PM 35.2656 -97.8636 91° East 440 506 39,000  Level Fort Worth Center
03:45PM 35.2661 -97.7111 90° East 440 506 39,000  Level Fort Worth Center
03:46PM 35.2642 -97.5636 91° East 440 506 39,000  Level Fort Worth Center
03:47PM 35.2686 -97.3856 88° East 454 522 39,000  Level Fort Worth Center
03:48PM 35.2683 -97.2356 90° East 454 522 39,000  Level Fort Worth Center
03:49PM 35.2619 -97.0856 93° East 454 522 39,000  Level Fort Worth Center
03:50PM 35.2614 -96.9356 90° East 449 517 39,000  Level Fort Worth Center
03:51PM 35.2608 -96.7806 90° East 444 511 39,000  Level Fort Worth Center
03:52PM 35.2600 -96.6306 90° East 444 511 39,000  Level Fort Worth Center
03:53PM 35.2589 -96.4806 90° East 439 505 39,000  Level Fort Worth Center
03:54PM 35.2578 -96.3306 90° East 439 505 39,000  Level Fort Worth Center
03:55PM 35.2522 -96.1806 93° East 439 505 39,000  Level Fort Worth Center
03:56PM 35.2528 -96.0331 90° East 439 505 39,000  Level Fort Worth Center
03:58PM 35.2483 -95.7294 91° East 420 483 39,000  Level Memphis Center
03:59PM 35.2464 -95.5792 91° East 425 489 39,000  Level Memphis Center
04:00PM 35.2442 -95.4292 91° East 435 501 39,000  Level Memphis Center
04:01PM 35.2397 -95.2814 92° East 441 507 39,000  Level Memphis Center
04:02PM 35.2372 -95.1311 91° East 441 507 39,000  Level Memphis Center
04:03PM 35.2344 -94.9836 91° East 441 507 39,000  Level Memphis Center
04:04PM 35.2314 -94.8361 91° East 441 507 39,000  Level Memphis Center
04:05PM 35.2286 -94.6858 91° East 441 507 39,000  Level Memphis Center
04:06PM 35.2231 -94.5383 93° East 441 507 39,000  Level Memphis Center
04:07PM 35.2194 -94.3931 92° East 441 507 39,000  Level Memphis Center
04:08PM 35.2158 -94.2456 92° East 436 502 39,000  Level Memphis Center
04:09PM 35.2122 -94.0931 92° East 436 502 39,000  Level Memphis Center
04:10PM 35.2061 -93.9478 93° East 436 502 39,000  Level Memphis Center
04:11PM 35.2039 -93.8003 91° East 441 507 39,000  Level Memphis Center
04:12PM 35.1992 -93.6706 93° East 436 502 39,000  Level Memphis Center
04:13PM 35.1925 -93.5256 93° East 429 494 39,000  Level Memphis Center
04:14PM 35.1858 -93.3728 93° East 429 494 39,000  Level Memphis Center
04:15PM 35.1831 -93.2278 91° East 436 502 39,000  Level Memphis Center
04:16PM 35.1761 -93.0753 93° East 441 507 39,000  Level Memphis Center
04:17PM 35.1708 -92.9253 92° East 441 507 39,000  Level Memphis Center
04:18PM 35.1656 -92.7728 92° East 436 502 39,000  Level Memphis Center
04:19PM 35.1578 -92.6278 94° East 441 507 39,000  Level Memphis Center
04:20PM 35.1522 -92.4803 93° East 441 507 39,000  Level Memphis Center
04:21PM 35.1464 -92.3253 93° East 447 514 39,000  Level Memphis Center
04:22PM 35.1361 -92.1625 94° East 442 509 39,000  Level Memphis Center
04:23PM 35.1300 -92.0150 93° East 442 509 39,000  Level Memphis Center
04:24PM 35.1236 -91.8650 93° East 442 509 39,000  Level Memphis Center
04:25PM 35.1189 -91.7203 92° East 435 501 39,000  Level Memphis Center
04:26PM 35.1078 -91.5756 95° East 435 501 39,000  Level Memphis Center
04:27PM 35.1008 -91.4256 93° East 435 501 39,000  Level Memphis Center
04:28PM 35.0958 -91.2808 92° East 430 495 39,000  Level Memphis Center
04:29PM 35.0842 -91.1361 96° East 430 495 39,000  Level Memphis Center
04:30PM 35.0767 -90.9839 93° East 435 501 39,000  Level Memphis Center
04:31PM 35.0689 -90.8519 94° East 435 501 39,000  Level Memphis Center
04:32PM 35.0611 -90.7047 94° East 435 501 39,000  Level Memphis Center
04:33PM 35.0511 -90.5575 95° East 441 507 39,000  Level Memphis Center
04:34PM 35.0428 -90.4078 94° East 436 502 39,000  Level Memphis Center
04:35PM 35.0367 -90.2758 93° East 436 502 39,000  Level Memphis Center
04:36PM 35.0239 -90.1008 95° East 436 502 39,000  Level Memphis Center
04:37PM 35.0172 -89.9564 93° East 436 502 39,000  Level Memphis Center
04:38PM 34.9978 -89.8069 99° East 436 502 39,000  Level Memphis Center
04:39PM 34.9739 -89.6525 101° East 444 511 39,000  Level Memphis Center
04:40PM 34.9503 -89.5211 102° East 462 532 39,000  Level Memphis Center
04:41PM 34.9261 -89.3769 102° East 450 518 39,000  Level Memphis Center
04:42PM 34.9042 -89.2303 100° East 445 512 39,000  Level Memphis Center
04:43PM 34.8819 -89.0839 100° East 445 512 39,000  Level Memphis Center
04:44PM 34.8594 -88.9372 101° East 445 512 39,000  Level Memphis Center
04:45PM 34.8344 -88.7783 101° East 445 512 39,000  Level Memphis Center
04:46PM 34.8117 -88.6319 101° East 445 512 39,000  Level Memphis Center
04:47PM 34.7933 -88.5161 101° East 445 512 39,000  Level Memphis Center
04:48PM 34.7681 -88.3600 101° East 440 506 39,000  Level Memphis Center
04:49PM 34.7467 -88.2164 100° East 435 501 39,000  Level Memphis Center
04:50PM 34.7208 -88.0453 100° East 451 519 39,000 -540 Level Memphis Center
04:51PM 34.6950 -87.8994 102° East 445 512 38,000 -960 Descending Memphis Center
04:53PM 34.6592 -87.6650 100° East 444 511 36,400 -1,440 Descending Atlanta Center
04:54PM 34.6361 -87.5203 101° East 444 511 34,100 -1,740 Descending Atlanta Center
04:55PM 34.6072 -87.3650 103° East 439 505 33,000 -600 Descending Atlanta Center
04:56PM 34.5794 -87.2278 104° East 427 491 33,000  Level Atlanta Center
04:57PM 34.5539 -87.0856 102° East 416 479 33,000  Level Atlanta Center
04:58PM 34.5281 -86.9458 103° East 416 479 33,000 -300 Level Atlanta Center
04:59PM 34.5000 -86.8064 104° East 416 479 32,500 -780 Descending Atlanta Center
05:00PM 34.4736 -86.6719 103° East 416 479 31,500 -780 Descending Atlanta Center
05:01PM 34.4472 -86.5350 103° East 416 479 31,000 -300 Descending Atlanta Center
05:02PM 34.4208 -86.4008 103° East 416 479 31,000  Level Atlanta Center
05:03PM 34.3942 -86.2642 103° East 416 479 31,000 -240 Level Atlanta Center
05:04PM 34.3672 -86.1250 103° East 416 479 30,600 -1,140 Descending Atlanta Center
05:05PM 34.3403 -85.9961 104° East 411 473 28,800 -1,800 Descending Atlanta Center
05:06PM 34.3169 -85.8697 103° East 398 458 27,000 -1,740 Descending Atlanta Center
05:07PM 34.2936 -85.7611 105° East 382 440 25,400 -1,740 Descending Atlanta Center
05:08PM 34.2700 -85.6425 104° East 370 426 23,600 -1,860 Descending Atlanta Center
05:09PM 34.2425 -85.5239 106° East 364 419 21,700 -1,800 Descending Atlanta Center
05:10PM 34.2083 -85.4128 110° East 364 419 20,000 -1,740 Descending Atlanta Center
05:11PM 34.1739 -85.3042 111° Southeast 348 400 18,300 -1,740 Descending Atlanta Center
05:12PM 34.1417 -85.1933 109° East 348 400 16,600 -1,800 Descending Atlanta Center
05:13PM 34.1069 -85.0875 112° Southeast 348 400 14,800 -1,320 Descending Atlanta Center
05:14PM 34.0600 -84.9842 119° Southeast 335 386 14,000 -840 Descending Atlanta Center
05:15PM 33.9958 -84.9058 135° Southeast 326 375 13,200 -900 Descending Atlanta Center
05:16PM 33.9336 -84.8275 134° Southeast 326 375 12,300 -600 Descending Atlanta Center
05:17PM 33.8694 -84.7469 134° Southeast 326 375 12,000 -180 Descending Atlanta Center
05:18PM 33.8167 -84.6833 135° Southeast 322 371 12,000  Level Atlanta TRACON
05:19PM 33.7667 -84.6000 126° Southeast 318 366 12,000 -540 Level Atlanta TRACON
05:20PM 33.7333 -84.5167 116° Southeast 313 360 11,000 -1,260 Descending Atlanta TRACON
05:21PM 33.7333 -84.4000 90° East 313 360 9,500 -1,500 Descending Atlanta TRACON
05:22PM 33.7333 -84.3167 90° East 297 342 8,000 -1,560 Descending Atlanta TRACON
05:23PM 33.7333 -84.2167 90° East 294 338 6,400 -1,200 Descending Atlanta TRACON
05:24PM 33.6833 -84.1667 140° Southeast 264 304 5,700 -1,200 Descending Atlanta TRACON
05:25PM 33.6500 -84.2167 231° Southwest 219 252 4,000 -1,440 Descending Atlanta TRACON
05:26PM 33.6500 -84.3000 270° West 204 235 2,900 -1,020 Descending Atlanta TRACON
05:27PM 33.6500 -84.3500 270° West 156 180 2,000 -900 Descending Atlanta TRACON
05:28PM 33.6500 -84.4000 270° West 148 170 1,200 -840 Descending Atlanta TRACON
05:30PM 33.6333 -84.4167 239° Southwest  Level FlightAware Approximate